Time;durP1;ratioP1;P1;durP2;ratioP2;P2;SDS_P1;SDS_P2;PMS_P1;PMS_P2;Temp;Humidity;BMP_temperature;BMP_pressure;BME280_temperature;BME280_humidity;BME280_pressure;Samples;Min_cycle;Max_cycle;Signal;HPM_P1;HPM_P2
2023/09/24 00:00:14;;;;;;;9.88;8.88;;;;;;;8.53;100.00;102132.84;5021484;28;20355;-70
2023/09/24 00:02:40;;;;;;;10.38;8.55;;;;;;;8.53;100.00;102130.19;5019527;28;20009;-71
2023/09/24 00:05:07;;;;;;;10.63;9.68;;;;;;;8.53;100.00;102138.16;5020698;28;20514;-70
2023/09/24 00:07:32;;;;;;;9.75;8.75;;;;;;;8.46;100.00;102126.78;5014220;28;20117;-71
2023/09/24 00:10:00;;;;;;;10.20;9.15;;;;;;;8.47;100.00;102128.53;5020028;28;20136;-71
2023/09/24 00:12:28;;;;;;;10.32;9.27;;;;;;;8.43;100.00;102136.59;5020458;28;20029;-70
2023/09/24 00:14:53;;;;;;;10.45;9.13;;;;;;;8.44;100.00;102141.88;5020721;28;20017;-70
2023/09/24 00:17:19;;;;;;;11.10;9.80;;;;;;;8.44;100.00;102139.22;5021016;28;20216;-69
2023/09/24 00:19:45;;;;;;;11.55;10.18;;;;;;;8.36;100.00;102138.50;5021848;28;20027;-70
2023/09/24 00:22:12;;;;;;;11.10;10.05;;;;;;;8.39;100.00;102156.13;5021412;28;20064;-70
2023/09/24 00:24:38;;;;;;;12.10;10.93;;;;;;;8.39;100.00;102151.69;5021604;28;20044;-70
2023/09/24 00:27:03;;;;;;;11.57;10.43;;;;;;;8.37;100.00;102153.53;5020728;28;20614;-69
2023/09/24 00:29:29;;;;;;;12.98;11.40;;;;;;;8.36;100.00;102150.84;5021154;28;20053;-70
2023/09/24 00:31:54;;;;;;;12.45;11.15;;;;;;;8.29;100.00;102150.13;5020401;28;20025;-70
2023/09/24 00:34:19;;;;;;;11.85;10.75;;;;;;;8.26;100.00;102149.31;5021003;28;20484;-69
2023/09/24 00:36:50;;;;;;;12.18;10.98;;;;;;;8.22;100.00;102148.50;5021306;28;20468;-68
2023/09/24 00:39:16;;;;;;;14.35;12.05;;;;;;;8.20;100.00;102143.22;5014730;28;20472;-69
2023/09/24 00:41:42;;;;;;;11.85;10.75;;;;;;;8.15;100.00;102144.22;5020597;28;20021;-68
2023/09/24 00:44:09;;;;;;;13.07;11.75;;;;;;;8.17;100.00;102145.94;5015346;28;20022;-69
2023/09/24 00:46:34;;;;;;;12.93;11.63;;;;;;;8.18;100.00;102144.16;5021144;28;20049;-70
2023/09/24 00:49:00;;;;;;;13.25;12.07;;;;;;;8.17;100.00;102153.03;5013891;28;20584;-70
2023/09/24 00:51:27;;;;;;;13.32;12.07;;;;;;;8.17;100.00;102155.69;5020621;28;20031;-69
2023/09/24 00:53:54;;;;;;;14.27;12.93;;;;;;;8.20;100.00;102150.31;5020969;28;20031;-69
2023/09/24 00:56:20;;;;;;;13.88;12.48;;;;;;;8.12;100.00;102150.47;5020546;28;20422;-68
2023/09/24 00:58:50;;;;;;;14.02;12.55;;;;;;;8.11;100.00;102159.34;5023239;28;20243;-68
2023/09/24 01:01:16;;;;;;;13.50;12.10;;;;;;;8.13;100.00;102169.91;5022335;28;20452;-69
2023/09/24 01:03:42;;;;;;;13.25;11.95;;;;;;;8.16;100.00;102175.16;5024960;28;20032;-69
2023/09/24 01:06:07;;;;;;;16.08;12.52;;;;;;;8.14;100.00;102169.00;5024547;28;20021;-69
2023/09/24 01:08:33;;;;;;;15.63;12.30;;;;;;;8.11;100.00;102156.69;5024423;28;20029;-69
2023/09/24 01:11:00;;;;;;;13.32;11.95;;;;;;;8.10;100.00;102156.69;5023660;28;20578;-69
2023/09/24 01:13:39;;;;;;;14.55;12.98;;;;;;;8.09;100.00;102161.13;5024353;28;20025;-69
2023/09/24 01:16:08;;;;;;;14.88;13.60;;;;;;;8.08;100.00;102163.81;5022157;28;20032;-69
2023/09/24 01:18:37;;;;;;;14.15;12.45;;;;;;;8.01;100.00;102162.19;5023888;28;20033;-70
2023/09/24 01:21:13;;;;;;;13.40;12.02;;;;;;;7.99;100.00;102165.75;5023244;28;20105;-69
2023/09/24 01:23:40;;;;;;;13.90;12.60;;;;;;;7.95;100.00;102169.34;5022909;28;20128;-69
2023/09/24 01:26:07;;;;;;;14.80;13.32;;;;;;;7.96;100.00;102170.22;5023747;28;20472;-68
2023/09/24 01:28:33;;;;;;;14.57;13.13;;;;;;;7.95;100.00;102165.84;5023382;28;20040;-70
2023/09/24 01:30:59;;;;;;;15.20;12.90;;;;;;;7.90;100.00;102171.22;5018717;28;20037;-69
2023/09/24 01:33:25;;;;;;;14.25;12.60;;;;;;;7.88;100.00;102167.72;5023772;28;20044;-70
2023/09/24 01:35:50;;;;;;;15.55;14.00;;;;;;;7.89;100.00;102164.16;5023923;28;20021;-69
2023/09/24 01:38:19;;;;;;;15.23;13.73;;;;;;;7.92;100.00;102160.56;5023850;28;20017;-69
2023/09/24 01:40:45;;;;;;;14.48;12.95;;;;;;;7.89;100.00;102148.25;5023246;28;20021;-69
2023/09/24 01:43:10;;;;;;;15.07;13.43;;;;;;;7.87;100.00;102150.06;5021409;28;20036;-68
2023/09/24 01:45:39;;;;;;;14.88;13.45;;;;;;;7.83;100.00;102150.16;5023996;28;20337;-68
2023/09/24 01:48:08;;;;;;;15.00;13.45;;;;;;;7.85;100.00;102148.34;5015459;28;20502;-70
2023/09/24 01:50:36;;;;;;;14.63;13.02;;;;;;;7.78;100.00;102158.19;5023397;28;20037;-69
2023/09/24 01:53:03;;;;;;;15.45;13.40;;;;;;;7.78;100.00;102150.25;5006014;28;20055;-68
2023/09/24 01:55:29;;;;;;;15.13;13.25;;;;;;;7.69;100.00;102148.63;5022614;28;20052;-68
2023/09/24 01:57:55;;;;;;;14.25;12.90;;;;;;;7.74;100.00;102151.19;5023528;28;20025;-68
2023/09/24 02:00:23;;;;;;;14.32;12.60;;;;;;;7.74;100.00;102152.06;5014046;28;20030;-68
2023/09/24 02:02:49;;;;;;;14.50;12.60;;;;;;;7.72;100.00;102148.56;5022394;28;20025;-69
2023/09/24 02:05:15;;;;;;;15.00;12.25;;;;;;;7.69;100.00;102147.72;5023609;28;20017;-68
2023/09/24 02:07:40;;;;;;;13.30;12.00;;;;;;;7.64;100.00;102149.59;5023278;28;20038;-68
2023/09/24 02:10:08;;;;;;;11.35;10.20;;;;;;;7.59;100.00;102157.63;5021937;28;20234;-68
2023/09/24 02:12:37;;;;;;;13.63;12.13;;;;;;;7.57;100.00;102169.19;5022585;28;20037;-69
2023/09/24 02:15:17;;;;;;;14.50;12.00;;;;;;;7.57;100.00;102166.53;5016809;28;20041;-70
2023/09/24 02:17:44;;;;;;;13.65;12.25;;;;;;;7.55;100.00;102168.31;5021970;28;20029;-69
2023/09/24 02:20:18;;;;;;;11.88;10.75;;;;;;;7.51;100.00;102167.47;5022891;28;20048;-69
2023/09/24 02:22:48;;;;;;;13.00;11.70;;;;;;;7.53;100.00;102186.03;5022781;28;20025;-69
2023/09/24 02:25:14;;;;;;;12.30;11.13;;;;;;;7.53;100.00;102184.25;5023005;28;20042;-70
2023/09/24 02:27:41;;;;;;;13.35;11.93;;;;;;;7.51;100.00;102185.16;5022915;28;20409;-70
2023/09/24 02:30:13;;;;;;;14.30;11.63;;;;;;;7.52;100.00;102185.13;5022595;28;20083;-69
2023/09/24 02:32:39;;;;;;;12.65;10.68;;;;;;;7.49;100.00;102182.56;5023402;28;20225;-70
2023/09/24 02:35:05;;;;;;;12.88;10.85;;;;;;;7.36;100.00;102181.88;5023028;28;20021;-70
2023/09/24 02:37:31;;;;;;;12.05;10.85;;;;;;;7.44;100.00;102185.28;5022305;28;20025;-71
2023/09/24 02:39:56;;;;;;;11.82;10.73;;;;;;;7.47;100.00;102185.19;5022105;28;20384;-71
2023/09/24 02:42:22;;;;;;;11.55;10.52;;;;;;;7.39;100.00;102181.81;5022240;28;20017;-69
2023/09/24 02:44:49;;;;;;;12.07;10.88;;;;;;;7.41;100.00;102185.31;5019194;28;20357;-70
2023/09/24 02:47:15;;;;;;;11.65;10.65;;;;;;;7.40;100.00;102188.88;5004242;28;20416;-69
2023/09/24 02:49:41;;;;;;;11.77;9.80;;;;;;;7.33;100.00;102183.69;5018189;28;20040;-69
2023/09/24 02:52:06;;;;;;;11.43;10.43;;;;;;;7.33;100.00;102189.88;5021177;28;20272;-69
2023/09/24 02:54:32;;;;;;;10.45;9.45;;;;;;;7.32;100.00;102189.91;5021398;28;20055;-69
2023/09/24 02:56:58;;;;;;;11.82;10.63;;;;;;;7.23;100.00;102180.28;5021439;28;20028;-69
2023/09/24 02:59:23;;;;;;;12.23;10.85;;;;;;;7.24;100.00;102188.25;5021802;28;20471;-69
2023/09/24 03:01:49;;;;;;;11.80;10.60;;;;;;;7.20;100.00;102178.59;5003716;28;20140;-69
2023/09/24 03:04:15;;;;;;;10.85;9.75;;;;;;;7.17;100.00;102188.34;5021368;28;20108;-70
2023/09/24 03:06:41;;;;;;;11.27;10.18;;;;;;;7.17;100.00;102188.34;5021232;28;20353;-69
2023/09/24 03:09:10;;;;;;;10.88;9.98;;;;;;;7.11;100.00;102189.31;5021764;28;20543;-69
2023/09/24 03:11:35;;;;;;;11.77;10.57;;;;;;;7.15;100.00;102187.50;5021233;28;20248;-70
2023/09/24 03:14:01;;;;;;;12.27;10.30;;;;;;;7.14;100.00;102189.25;5022024;28;20025;-69
2023/09/24 03:16:28;;;;;;;11.65;9.88;;;;;;;7.12;100.00;102198.16;5004471;28;20032;-69
2023/09/24 03:18:54;;;;;;;11.45;9.52;;;;;;;7.08;100.00;102192.00;5022269;28;20029;-69
2023/09/24 03:21:19;;;;;;;10.52;9.52;;;;;;;7.08;100.00;102199.09;5021046;28;20365;-69
2023/09/24 03:23:45;;;;;;;11.27;10.13;;;;;;;7.06;100.00;102201.72;5022404;28;20181;-71
2023/09/24 03:26:14;;;;;;;10.95;9.63;;;;;;;7.03;100.00;102198.28;5022536;28;20025;-70
2023/09/24 03:28:43;;;;;;;11.77;9.80;;;;;;;7.03;100.00;102203.56;5021553;28;20103;-68
2023/09/24 03:31:15;;;;;;;12.38;10.55;;;;;;;7.04;100.00;102213.25;5017750;28;20057;-69
2023/09/24 03:33:41;;;;;;;11.05;9.95;;;;;;;7.01;100.00;102208.88;5010742;28;20037;-69
2023/09/24 03:36:08;;;;;;;12.80;10.68;;;;;;;6.97;100.00;102213.34;5019000;28;20026;-69
2023/09/24 03:38:33;;;;;;;12.32;9.82;;;;;;;6.92;100.00;102207.22;5020807;28;20510;-68
2023/09/24 03:40:59;;;;;;;10.55;9.45;;;;;;;6.91;100.00;102216.09;5004146;28;20028;-69
2023/09/24 03:43:24;;;;;;;11.63;10.15;;;;;;;6.95;100.00;102219.56;5021186;28;20232;-70
2023/09/24 03:45:50;;;;;;;10.55;9.55;;;;;;;6.92;100.00;102215.16;5020894;28;20049;-69
2023/09/24 03:48:15;;;;;;;11.63;9.45;;;;;;;6.86;100.00;102220.56;5021459;28;20480;-68
2023/09/24 03:50:40;;;;;;;12.15;9.68;;;;;;;6.90;100.00;102226.69;5020483;28;20040;-68
2023/09/24 03:53:06;;;;;;;13.27;10.38;;;;;;;6.91;100.00;102223.16;5021470;28;20025;-70
2023/09/24 03:55:31;;;;;;;12.00;9.63;;;;;;;6.89;100.00;102217.84;5021397;28;20120;-69
2023/09/24 03:57:57;;;;;;;11.18;10.07;;;;;;;6.91;100.00;102226.66;5021861;28;20075;-69
2023/09/24 04:00:22;;;;;;;14.50;10.50;;;;;;;6.93;100.00;102222.22;5014666;28;20118;-68
2023/09/24 04:02:49;;;;;;;13.30;10.25;;;;;;;6.91;100.00;102225.78;5021517;28;20018;-69
2023/09/24 04:05:17;;;;;;;11.07;9.88;;;;;;;6.90;100.00;102230.22;5021172;28;20519;-70
2023/09/24 04:07:44;;;;;;;13.27;10.05;;;;;;;6.94;100.00;102231.94;5003302;28;20108;-68
2023/09/24 04:10:14;;;;;;;13.35;10.30;;;;;;;6.90;100.00;102230.22;5021498;28;20030;-69
2023/09/24 04:12:43;;;;;;;14.05;9.90;;;;;;;6.90;100.00;102232.00;5021322;28;20443;-69
2023/09/24 04:15:10;;;;;;;10.32;9.38;;;;;;;6.87;100.00;102230.25;5021632;28;20086;-69
2023/09/24 04:17:39;;;;;;;11.77;9.75;;;;;;;6.87;100.00;102240.84;5018537;28;20123;-68
2023/09/24 04:20:07;;;;;;;10.52;9.38;;;;;;;6.90;100.00;102239.94;5020609;28;20025;-70
2023/09/24 04:22:33;;;;;;;11.07;9.00;;;;;;;6.85;100.00;102231.16;5020919;28;20601;-69
2023/09/24 04:24:58;;;;;;;10.90;9.43;;;;;;;6.87;100.00;102239.97;5021495;28;20131;-69
2023/09/24 04:27:24;;;;;;;11.55;9.20;;;;;;;6.83;100.00;102235.59;5020908;28;20471;-69
2023/09/24 04:29:49;;;;;;;11.35;9.45;;;;;;;6.83;100.00;102249.72;5020952;28;20048;-68
2023/09/24 04:32:15;;;;;;;11.95;9.20;;;;;;;6.81;100.00;102247.97;5022962;28;20029;-69
2023/09/24 04:34:41;;;;;;;10.95;8.70;;;;;;;6.73;100.00;102238.38;5024884;28;20026;-69
2023/09/24 04:37:06;;;;;;;13.48;8.77;;;;;;;6.78;100.00;102254.19;5025066;28;20025;-69
2023/09/24 04:39:32;;;;;;;10.85;8.95;;;;;;;6.76;100.00;102242.75;5025161;28;20029;-69
2023/09/24 04:41:58;;;;;;;9.32;8.43;;;;;;;6.73;100.00;102246.31;5025150;28;20237;-70
2023/09/24 04:44:23;;;;;;;13.50;9.95;;;;;;;6.70;100.00;102243.69;5025153;28;20083;-71
2023/09/24 04:46:51;;;;;;;10.85;8.65;;;;;;;6.76;100.00;102249.81;5020466;28;20013;-69
2023/09/24 04:49:17;;;;;;;9.85;8.85;;;;;;;6.76;100.00;102242.75;5024157;28;20056;-69
2023/09/24 04:51:42;;;;;;;10.07;9.05;;;;;;;6.71;100.00;102239.28;5013993;28;20071;-70
2023/09/24 04:54:07;;;;;;;11.07;9.52;;;;;;;6.67;100.00;102241.09;5024564;28;20156;-69
2023/09/24 04:56:33;;;;;;;10.63;9.10;;;;;;;6.65;100.00;102234.94;5024783;28;20026;-69
2023/09/24 04:58:59;;;;;;;12.75;8.93;;;;;;;6.64;100.00;102242.88;5006665;28;20032;-70
2023/09/24 05:01:24;;;;;;;10.23;8.73;;;;;;;6.69;100.00;102247.25;5025665;28;20233;-69
2023/09/24 05:03:50;;;;;;;11.73;9.20;;;;;;;6.65;100.00;102244.66;5023970;28;20605;-69
2023/09/24 05:06:16;;;;;;;10.68;9.02;;;;;;;6.63;100.00;102249.94;5019294;28;20026;-69
2023/09/24 05:08:43;;;;;;;12.18;9.00;;;;;;;6.62;100.00;102239.41;5024294;28;20549;-69
2023/09/24 05:11:12;;;;;;;13.88;9.43;;;;;;;6.58;100.00;102253.56;5024557;28;20026;-69
2023/09/24 05:13:37;;;;;;;11.35;9.20;;;;;;;6.60;100.00;102259.69;5024437;28;20132;-69
2023/09/24 05:16:03;;;;;;;11.45;9.07;;;;;;;6.63;100.00;102263.19;5024321;28;20104;-70
2023/09/24 05:18:29;;;;;;;11.57;8.60;;;;;;;6.61;100.00;102258.81;5023716;28;20408;-69
2023/09/24 05:20:55;;;;;;;12.68;9.43;;;;;;;6.62;100.00;102261.44;5024018;28;20281;-69
2023/09/24 05:23:21;;;;;;;11.73;8.57;;;;;;;6.63;100.00;102270.25;5023969;28;20052;-69
2023/09/24 05:25:47;;;;;;;9.90;8.65;;;;;;;6.62;100.00;102265.84;5023975;28;20033;-68
2023/09/24 05:28:13;;;;;;;10.55;8.60;;;;;;;6.61;100.00;102267.63;5023357;28;20093;-69
2023/09/24 05:30:39;;;;;;;11.27;9.20;;;;;;;6.65;100.00;102268.47;5018096;28;20044;-68
2023/09/24 05:33:04;;;;;;;10.90;8.63;;;;;;;6.59;100.00;102264.09;5022841;28;20022;-70
2023/09/24 05:35:31;;;;;;;12.95;9.00;;;;;;;6.66;100.00;102273.72;5023854;28;20053;-69
2023/09/24 05:37:57;;;;;;;12.68;8.80;;;;;;;6.69;100.00;102275.47;5024165;28;20032;-69
2023/09/24 05:40:22;;;;;;;12.20;9.32;;;;;;;6.69;100.00;102264.91;5023107;28;20399;-70
2023/09/24 05:42:47;;;;;;;11.15;8.90;;;;;;;6.69;100.00;102280.78;5004655;28;20464;-69
2023/09/24 05:45:13;;;;;;;12.50;8.95;;;;;;;6.73;100.00;102286.00;5023803;28;20026;-70
2023/09/24 05:47:38;;;;;;;17.42;9.20;;;;;;;6.77;100.00;102283.31;5022988;28;20041;-70
2023/09/24 05:50:04;;;;;;;11.50;8.27;;;;;;;6.78;100.00;102296.53;5024743;28;20034;-69
2023/09/24 05:52:30;;;;;;;14.35;9.13;;;;;;;6.83;100.00;102299.13;5023849;28;20049;-69
2023/09/24 05:54:56;;;;;;;13.38;8.95;;;;;;;6.87;100.00;102296.41;5000061;28;20024;-70
2023/09/24 05:57:21;;;;;;;10.48;8.32;;;;;;;6.93;100.00;102292.81;5021555;28;20018;-68
2023/09/24 05:59:47;;;;;;;13.13;8.80;;;;;;;6.92;100.00;102302.53;5024119;28;20025;-68
2023/09/24 06:02:12;;;;;;;12.73;8.65;;;;;;;7.01;100.00;102295.38;5023232;28;20032;-69
2023/09/24 06:04:38;;;;;;;11.50;8.93;;;;;;;7.02;100.00;102297.09;5023698;28;20199;-68
2023/09/24 06:07:03;;;;;;;10.15;8.63;;;;;;;7.07;100.00;102296.16;5023305;28;20082;-69
2023/09/24 06:09:30;;;;;;;13.60;9.30;;;;;;;7.12;100.00;102298.75;5023170;28;20017;-69
2023/09/24 06:11:55;;;;;;;11.77;9.45;;;;;;;7.17;100.00;102304.84;5022732;28;20451;-69
2023/09/24 06:14:21;;;;;;;12.77;9.10;;;;;;;7.20;100.00;102303.06;5022687;28;20033;-68
2023/09/24 06:16:46;;;;;;;11.93;8.93;;;;;;;7.24;100.00;102304.75;5022626;28;20025;-70
2023/09/24 06:19:11;;;;;;;13.52;9.27;;;;;;;7.27;100.00;102306.47;5022802;28;20082;-70
2023/09/24 06:21:37;;;;;;;11.23;9.05;;;;;;;7.30;100.00;102308.22;5017070;28;20053;-69
2023/09/24 06:24:02;;;;;;;15.27;9.80;;;;;;;7.44;100.00;102316.81;5022339;28;20033;-70
2023/09/24 06:26:30;;;;;;;12.20;9.18;;;;;;;7.56;100.00;102318.44;5023183;28;20460;-69
2023/09/24 06:28:56;;;;;;;14.38;10.27;;;;;;;7.85;100.00;102320.63;5021945;28;20025;-68
2023/09/24 06:31:21;;;;;;;12.30;9.25;;;;;;;8.03;100.00;102316.84;5021681;28;21292;-69
2023/09/24 06:33:47;;;;;;;11.75;9.25;;;;;;;8.22;100.00;102321.78;5022617;28;20017;-70
2023/09/24 06:36:12;;;;;;;12.90;8.95;;;;;;;8.47;100.00;102308.97;5019158;28;20073;-70
2023/09/24 06:38:37;;;;;;;12.07;7.88;;;;;;;8.68;100.00;102322.75;5020430;28;20025;-68
2023/09/24 06:41:03;;;;;;;11.18;8.00;;;;;;;8.83;100.00;102318.91;5022315;28;20021;-69
2023/09/24 06:43:33;;;;;;;11.15;7.57;;;;;;;8.95;100.00;102324.00;5022331;28;20026;-69
2023/09/24 06:46:02;;;;;;;12.05;7.10;;;;;;;9.06;100.00;102327.28;5016780;28;20021;-69
2023/09/24 06:48:28;;;;;;;9.48;7.13;;;;;;;9.18;100.00;102321.69;5022011;28;20021;-69
2023/09/24 06:50:53;;;;;;;8.48;6.30;;;;;;;9.35;100.00;102326.66;5022305;28;20056;-70
2023/09/24 06:53:19;;;;;;;9.75;6.82;;;;;;;9.46;100.00;102326.41;5022661;28;20045;-69
2023/09/24 06:55:45;;;;;;;8.50;6.15;;;;;;;9.68;100.00;102326.78;5021967;28;20028;-70
2023/09/24 06:58:12;;;;;;;10.13;6.15;;;;;;;9.77;100.00;102331.88;5021877;28;20222;-69
2023/09/24 07:00:37;;;;;;;7.93;5.70;;;;;;;9.85;100.00;102342.34;5022132;28;20078;-69
2023/09/24 07:03:03;;;;;;;10.32;6.43;;;;;;;9.85;100.00;102329.06;5022025;28;20013;-69
2023/09/24 07:05:29;;;;;;;8.57;5.55;;;;;;;9.85;100.00;102335.25;5022014;28;20038;-69
2023/09/24 07:07:55;;;;;;;9.02;6.00;;;;;;;9.83;100.00;102331.75;5021981;28;20557;-69
2023/09/24 07:10:24;;;;;;;9.27;6.22;;;;;;;9.66;100.00;102339.25;5022450;28;20029;-70
2023/09/24 07:12:53;;;;;;;9.43;6.28;;;;;;;9.57;100.00;102336.78;5021384;28;20023;-68
2023/09/24 07:15:19;;;;;;;12.63;7.80;;;;;;;9.46;100.00;102343.25;5022364;28;20025;-68
2023/09/24 07:17:45;;;;;;;9.32;6.88;;;;;;;9.42;100.00;102346.00;5022329;28;20079;-70
2023/09/24 07:20:11;;;;;;;11.27;7.18;;;;;;;9.38;100.00;102339.00;5021768;28;20446;-69
2023/09/24 07:22:37;;;;;;;8.00;6.68;;;;;;;9.33;100.00;102338.25;5021430;28;20017;-69
2023/09/24 07:25:02;;;;;;;10.68;7.18;;;;;;;9.37;100.00;102339.91;5021949;28;20042;-70
2023/09/24 07:27:28;;;;;;;11.27;7.00;;;;;;;9.55;100.00;102341.28;5020898;28;20558;-70
2023/09/24 07:29:53;;;;;;;9.57;6.82;;;;;;;9.88;100.00;102351.13;5016982;28;20029;-68
2023/09/24 07:32:18;;;;;;;11.27;6.80;;;;;;;10.23;100.00;102357.38;5021958;28;20125;-69
2023/09/24 07:34:46;;;;;;;7.53;5.90;;;;;;;10.70;100.00;102341.94;5021693;28;20037;-69
2023/09/24 07:37:13;;;;;;;9.20;6.07;;;;;;;11.63;100.00;102357.00;5021926;28;20207;-69
2023/09/24 07:39:39;;;;;;;9.00;5.43;;;;;;;12.39;100.00;102362.53;5021182;28;20018;-69
2023/09/24 07:42:05;;;;;;;8.70;5.68;;;;;;;13.03;100.00;102353.16;5021498;28;20048;-68
2023/09/24 07:44:30;;;;;;;6.78;4.45;;;;;;;13.72;100.00;102367.47;5014073;28;20022;-69
2023/09/24 07:46:56;;;;;;;5.95;3.88;;;;;;;14.39;100.00;102369.16;5022368;28;20275;-69
2023/09/24 07:49:22;;;;;;;6.43;4.25;;;;;;;14.90;99.93;102368.72;5021650;28;20468;-69
2023/09/24 07:51:47;;;;;;;6.75;4.20;;;;;;;15.30;96.27;102369.59;5003752;28;20036;-69
2023/09/24 07:54:13;;;;;;;6.07;3.95;;;;;;;15.63;92.37;102368.94;5021434;28;20701;-70
2023/09/24 07:56:41;;;;;;;5.35;3.35;;;;;;;16.20;90.47;102380.50;5020932;28;20025;-70
2023/09/24 07:59:07;;;;;;;4.97;3.80;;;;;;;16.48;88.25;102376.41;5019383;28;20025;-70
2023/09/24 08:01:32;;;;;;;5.60;3.35;;;;;;;16.73;85.76;102376.91;5016640;28;20037;-69
2023/09/24 08:03:58;;;;;;;5.38;3.72;;;;;;;17.12;84.80;102373.91;5020394;28;20490;-70
2023/09/24 08:06:23;;;;;;;6.43;3.40;;;;;;;17.71;82.67;102382.31;5021282;28;20048;-69
2023/09/24 08:08:49;;;;;;;5.60;3.13;;;;;;;18.27;78.77;102374.66;5024827;28;20026;-70
2023/09/24 08:11:14;;;;;;;6.60;3.60;;;;;;;18.75;76.81;102378.09;5024156;28;20399;-70
2023/09/24 08:13:39;;;;;;;6.10;3.42;;;;;;;18.98;72.94;102382.06;5024863;28;20025;-71
2023/09/24 08:16:05;;;;;;;5.47;3.60;;;;;;;19.29;71.23;102381.03;5000273;28;20026;-70
2023/09/24 08:18:30;;;;;;;6.18;3.40;;;;;;;19.80;69.74;102373.25;5025453;28;20159;-70
2023/09/24 08:20:56;;;;;;;5.72;3.80;;;;;;;20.30;68.34;102383.41;5025485;28;20048;-72
2023/09/24 08:23:23;;;;;;;4.90;3.13;;;;;;;20.46;66.38;102385.06;5025967;28;20021;-70
2023/09/24 08:25:51;;;;;;;4.57;3.25;;;;;;;21.03;65.16;102379.34;5027006;28;20076;-70
2023/09/24 08:28:17;;;;;;;4.95;2.70;;;;;;;21.11;61.61;102371.53;5026754;28;20018;-71
2023/09/24 08:30:43;;;;;;;4.70;2.85;;;;;;;21.34;62.53;102376.19;5025450;28;20408;-70
2023/09/24 08:33:09;;;;;;;6.03;3.15;;;;;;;21.83;59.64;102382.56;5023538;28;20095;-71
2023/09/24 08:35:35;;;;;;;5.93;3.03;;;;;;;22.13;57.95;102380.28;5025448;28;20036;-70
2023/09/24 08:38:01;;;;;;;5.97;2.90;;;;;;;22.52;58.76;102374.66;5027485;28;20095;-70
2023/09/24 08:40:30;;;;;;;3.85;2.80;;;;;;;22.87;57.54;102382.78;5026913;28;20061;-70
2023/09/24 08:42:56;;;;;;;6.05;2.65;;;;;;;23.08;56.24;102380.22;5025829;28;20022;-71
2023/09/24 08:45:23;;;;;;;6.03;3.40;;;;;;;23.68;52.65;102379.00;5026538;28;20033;-71
2023/09/24 08:47:50;;;;;;;4.82;2.80;;;;;;;23.74;52.31;102381.19;5026596;28;20223;-72
2023/09/24 08:50:15;;;;;;;4.93;2.40;;;;;;;23.96;52.26;102385.72;5026482;28;20021;-74
2023/09/24 08:52:44;;;;;;;4.38;2.30;;;;;;;24.04;50.75;102391.41;5025010;28;20021;-71
2023/09/24 08:55:10;;;;;;;5.00;2.28;;;;;;;24.49;51.00;102398.53;5017573;28;20063;-70
2023/09/24 08:57:37;;;;;;;4.50;1.98;;;;;;;24.77;48.38;102397.88;5022075;28;20037;-71
2023/09/24 09:00:09;;;;;;;2.80;1.70;;;;;;;24.74;47.97;102392.69;5026091;28;20127;-71
2023/09/24 09:02:35;;;;;;;4.35;2.00;;;;;;;24.74;47.80;102392.69;5026515;28;20022;-71
2023/09/24 09:05:03;;;;;;;4.45;2.20;;;;;;;25.22;48.12;102392.16;5026064;28;20498;-72
2023/09/24 09:07:29;;;;;;;4.57;2.25;;;;;;;25.64;48.98;102392.03;5025718;28;20391;-70
2023/09/24 09:09:56;;;;;;;6.50;2.50;;;;;;;26.34;45.87;102384.69;5003325;28;20029;-73
2023/09/24 09:12:26;;;;;;;3.85;1.77;;;;;;;26.62;44.66;102384.84;5025764;28;20026;-71
2023/09/24 09:14:51;;;;;;;3.95;2.20;;;;;;;27.08;42.30;102390.31;5022395;28;20040;-71
2023/09/24 09:17:17;;;;;;;7.50;3.60;;;;;;;27.38;41.60;102373.84;5026483;28;20029;-71
2023/09/24 09:20:01;;;;;;;6.28;2.00;;;;;;;27.23;45.33;102376.22;5021479;28;20152;-71
2023/09/24 09:22:27;;;;;;;3.53;1.70;;;;;;;27.33;42.12;102376.19;5024261;28;20104;-71
2023/09/24 09:25:04;;;;;;;3.95;1.85;;;;;;;27.72;42.08;102374.97;5020161;28;20041;-71
2023/09/24 09:27:43;;;;;;;3.55;2.00;;;;;;;27.93;42.38;102362.91;5026236;28;20022;-73
2023/09/24 09:30:27;;;;;;;4.53;1.70;;;;;;;28.85;42.28;102365.25;5023626;28;20118;-71
2023/09/24 09:32:52;;;;;;;;;;;;;;;29.89;41.85;102362.34;5027889;28;20060;-72
2023/09/24 09:35:17;;;;;;;3.72;1.92;;;;;;;29.72;36.71;102364.19;5026719;28;20502;-71
2023/09/24 09:37:43;;;;;;;1.95;1.25;;;;;;;29.90;36.48;102360.47;5025911;28;20145;-70
2023/09/24 09:40:10;;;;;;;2.83;1.40;;;;;;;30.12;36.39;102357.03;5026129;28;20600;-72
2023/09/24 09:42:38;;;;;;;2.78;1.77;;;;;;;30.37;34.54;102355.19;5026281;28;20018;-71
2023/09/24 09:45:08;;;;;;;3.20;1.73;;;;;;;29.92;35.27;102353.75;5026135;28;20049;-71
2023/09/24 09:48:04;;;;;;;3.53;1.70;;;;;;;29.88;35.61;102343.28;5025586;28;20017;-70
2023/09/24 09:50:38;;;;;;;5.15;1.92;;;;;;;29.72;35.43;102328.53;5008714;28;20025;-70
2023/09/24 09:53:09;;;;;;;4.18;1.95;;;;;;;29.60;33.81;102334.50;5025408;28;20094;-71
2023/09/24 09:55:38;;;;;;;3.35;1.67;;;;;;;29.13;34.09;102333.06;5023961;28;20048;-75
2023/09/24 09:58:05;;;;;;;2.30;1.15;;;;;;;29.54;35.25;102325.00;5025474;28;20021;-70
2023/09/24 10:00:30;;;;;;;3.25;1.70;;;;;;;30.46;33.58;102323.94;5026065;28;20041;-71
2023/09/24 10:02:56;;;;;;;2.65;1.33;;;;;;;30.70;32.57;102327.69;5026217;28;20541;-71
2023/09/24 10:05:22;;;;;;;2.33;1.10;;;;;;;30.73;31.61;102336.47;5025937;28;20091;-71
2023/09/24 10:07:48;;;;;;;2.60;1.40;;;;;;;31.35;31.85;102326.66;5024708;28;20075;-72
2023/09/24 10:10:31;;;;;;;4.05;1.88;;;;;;;31.92;33.40;102326.34;5025252;28;20029;-71
2023/09/24 10:13:03;;;;;;;2.20;1.30;;;;;;;31.28;30.34;102331.16;5019463;28;20068;-71
2023/09/24 10:15:30;;;;;;;4.10;1.80;;;;;;;30.93;29.42;102328.69;5025099;28;20338;-70
2023/09/24 10:18:15;;;;;;;3.53;1.67;;;;;;;31.30;32.35;102316.19;5018068;28;20032;-71
2023/09/24 10:21:06;;;;;;;2.78;1.60;;;;;;;31.94;32.59;102314.13;5021127;28;20040;-70
2023/09/24 10:23:34;;;;;;;4.90;1.80;;;;;;;31.40;29.66;102310.50;5023274;28;20049;-72
2023/09/24 10:26:04;;;;;;;3.05;1.42;;;;;;;31.64;29.51;102313.06;5025284;28;20025;-71
2023/09/24 10:28:50;;;;;;;4.32;1.50;;;;;;;32.34;30.31;102319.47;5024330;28;20087;-71
2023/09/24 10:31:21;;;;;;;2.55;1.02;;;;;;;32.45;29.40;102313.56;5025206;28;20025;-71
2023/09/24 10:34:02;;;;;;;3.58;1.30;;;;;;;33.03;29.79;102300.88;5024978;28;20099;-71
2023/09/24 10:36:33;;;;;;;5.97;1.95;;;;;;;32.61;27.73;102298.75;5013741;28;20077;-71
2023/09/24 10:39:15;;;;;;;2.85;1.40;;;;;;;33.14;28.29;102300.38;5025445;28;20041;-71
2023/09/24 10:42:08;;;;;;;3.50;1.45;;;;;;;33.13;28.06;102309.69;5024130;28;20325;-74
2023/09/24 10:44:35;;;;;;;;;;;;;;;34.33;28.05;102298.09;5024047;28;20029;-71
2023/09/24 10:47:25;;;;;;;3.10;1.23;;;;;;;34.55;28.50;102304.44;5024222;28;19913;-71
2023/09/24 10:50:00;;;;;;;2.33;1.13;;;;;;;34.18;25.46;102303.69;5007371;28;20018;-72
2023/09/24 10:52:25;;;;;;;2.72;1.20;;;;;;;34.89;26.50;102306.34;5023713;28;20030;-71
2023/09/24 10:54:51;;;;;;;1.67;1.15;;;;;;;35.23;24.02;102295.47;5025568;28;20022;-71
2023/09/24 10:57:23;;;;;;;2.13;1.45;;;;;;;34.99;25.46;102307.91;5023829;28;20022;-71
2023/09/24 10:59:49;;;;;;;2.00;1.30;;;;;;;34.69;24.65;102297.94;5024390;28;20029;-72
2023/09/24 11:02:18;;;;;;;2.60;1.30;;;;;;;34.17;25.59;102302.00;5023506;28;20102;-70
2023/09/24 11:04:43;;;;;;;3.22;1.30;;;;;;;34.07;25.21;102295.97;5024353;28;20029;-71
2023/09/24 11:07:12;;;;;;;1.77;1.10;;;;;;;34.15;26.38;102298.59;5024509;28;20021;-71
2023/09/24 11:09:38;;;;;;;2.63;1.40;;;;;;;34.33;24.14;102288.94;5024677;28;20069;-71
2023/09/24 11:12:09;;;;;;;2.55;1.25;;;;;;;34.79;25.53;102291.22;5024053;28;20117;-71
2023/09/24 11:14:35;;;;;;;1.95;1.10;;;;;;;35.36;22.79;102287.22;5022766;28;20396;-71
2023/09/24 11:17:01;;;;;;;1.95;1.30;;;;;;;34.24;23.19;102292.88;5021891;28;20018;-72
2023/09/24 11:19:46;;;;;;;1.90;1.10;;;;;;;33.97;25.58;102289.91;5024327;28;20025;-72